Time;durP1;ratioP1;P1;durP2;ratioP2;P2;SDS_P1;SDS_P2;PMS_P1;PMS_P2;Temp;Humidity;BMP_temperature;BMP_pressure;BME280_temperature;BME280_humidity;BME280_pressure;Samples;Min_cycle;Max_cycle;Signal;HPM_P1;HPM_P2
2023/01/29 00:02:06;;;;;;;8.27;7.43;;;;;;;-3.26;100.00;97999.78;5066944;28;20205;-66
2023/01/29 00:04:34;;;;;;;8.20;7.40;;;;;;;-3.21;100.00;98009.91;5048477;28;20334;-62
2023/01/29 00:07:02;;;;;;;7.70;7.03;;;;;;;-3.13;100.00;98004.34;5049827;28;20466;-66
2023/01/29 00:09:30;;;;;;;8.60;7.90;;;;;;;-3.15;100.00;98017.38;5049903;28;20261;-63
2023/01/29 00:11:59;;;;;;;8.53;7.83;;;;;;;-3.26;100.00;98010.13;5063175;28;20352;-65
2023/01/29 00:14:27;;;;;;;7.50;6.90;;;;;;;-3.17;100.00;98002.84;5074326;28;20217;-64
2023/01/29 00:16:55;;;;;;;8.83;7.50;;;;;;;-3.16;100.00;98007.09;5062829;28;20316;-65
2023/01/29 00:19:22;;;;;;;8.13;7.33;;;;;;;-3.19;100.00;98000.31;5067494;28;20267;-65
2023/01/29 00:21:50;;;;;;;7.37;6.67;;;;;;;-3.24;100.00;98008.31;5020755;28;20198;-64
2023/01/29 00:24:17;;;;;;;8.77;7.87;;;;;;;-3.28;100.00;98011.16;5069391;28;20228;-66
2023/01/29 00:26:45;;;;;;;7.90;7.20;;;;;;;-3.24;100.00;98016.09;5049834;28;20460;-63
2023/01/29 00:29:14;;;;;;;8.27;7.60;;;;;;;-3.24;100.00;98007.47;5065117;28;20226;-65
2023/01/29 00:31:44;;;;;;;7.87;6.83;;;;;;;-3.26;100.00;98006.72;5064570;28;20194;-63
2023/01/29 00:34:12;;;;;;;8.37;7.77;;;;;;;-3.29;100.00;98001.69;5070093;28;20219;-66
2023/01/29 00:36:40;;;;;;;7.93;7.13;;;;;;;-3.25;100.00;97998.03;5020947;28;20223;-62
2023/01/29 00:39:09;;;;;;;7.83;7.13;;;;;;;-3.25;100.00;98013.59;5063149;28;20223;-65
2023/01/29 00:47:29;;;;;;;7.40;6.80;;;;;;;-3.11;100.00;98002.53;5059805;28;20206;-64
2023/01/29 00:49:57;;;;;;;7.53;6.83;;;;;;;-3.11;100.00;97998.16;5064765;28;20217;-65
2023/01/29 00:52:25;;;;;;;8.33;7.53;;;;;;;-3.10;100.00;97999.00;5024633;28;20237;-65
2023/01/29 00:54:53;;;;;;;8.70;7.90;;;;;;;-3.05;100.00;97997.84;5060713;28;20605;-65
2023/01/29 00:57:21;;;;;;;8.40;7.60;;;;;;;-3.08;100.00;97990.22;5053886;28;20202;-65
2023/01/29 00:59:50;;;;;;;8.50;7.60;;;;;;;-3.11;100.00;97987.78;5065757;28;20413;-64
2023/01/29 01:05:04;;;;;;;7.40;6.80;;;;;;;-3.15;100.00;97995.81;5068385;28;20493;-65
2023/01/29 01:07:32;;;;;;;7.33;6.80;;;;;;;-3.15;100.00;97991.47;5021915;28;20555;-63
2023/01/29 01:12:50;;;;;;;7.50;6.80;;;;;;;-3.09;100.00;97979.94;5041940;28;20818;-62
2023/01/29 01:15:19;;;;;;;7.83;7.17;;;;;;;-3.15;100.00;97981.09;5062030;28;20253;-66
2023/01/29 01:17:48;;;;;;;7.33;6.73;;;;;;;-3.14;100.00;97987.94;5061715;28;20469;-66
2023/01/29 01:20:16;;;;;;;7.17;6.67;;;;;;;-3.08;100.00;97997.19;5069488;28;20266;-65
2023/01/29 01:22:44;;;;;;;6.73;6.23;;;;;;;-3.09;100.00;97987.72;5017608;28;20315;-61
2023/01/29 01:25:11;;;;;;;9.53;8.67;;;;;;;-3.04;100.00;97993.50;5066625;28;20478;-65
2023/01/29 01:27:40;;;;;;;8.17;7.37;;;;;;;-3.06;100.00;97995.34;5044255;28;20215;-63
2023/01/29 01:30:10;;;;;;;6.80;6.20;;;;;;;-3.10;100.00;97988.63;5064894;28;20305;-66
2023/01/29 01:32:39;;;;;;;6.10;5.57;;;;;;;-3.10;100.00;97970.50;5063833;28;20238;-63
2023/01/29 01:35:08;;;;;;;6.70;6.20;;;;;;;-3.25;100.00;97978.13;5066291;28;20311;-66
2023/01/29 01:37:37;;;;;;;6.93;6.43;;;;;;;-3.10;100.00;97980.88;5041048;28;20998;-63
2023/01/29 01:40:11;;;;;;;6.97;6.37;;;;;;;-3.14;100.00;97974.16;5050461;28;20977;-65
2023/01/29 01:42:39;;;;;;;6.57;6.07;;;;;;;-3.18;100.00;97951.91;5044292;28;20522;-62
2023/01/29 01:45:14;;;;;;;6.33;5.77;;;;;;;-3.14;100.00;97956.84;5062015;28;20436;-65
2023/01/29 01:47:47;;;;;;;7.37;6.07;;;;;;;-3.16;100.00;97957.84;5055625;28;20609;-63
2023/01/29 01:50:16;;;;;;;6.10;5.70;;;;;;;-3.15;100.00;97947.38;5068864;28;20223;-66
2023/01/29 01:52:48;;;;;;;5.80;5.40;;;;;;;-3.14;100.00;97951.66;5015296;28;20724;-63
2023/01/29 01:55:17;;;;;;;6.10;5.60;;;;;;;-3.14;100.00;97953.41;5068775;28;20611;-66
2023/01/29 01:57:46;;;;;;;5.43;5.10;;;;;;;-3.14;100.00;97953.41;5063760;28;20206;-63
2023/01/29 02:00:16;;;;;;;5.30;4.90;;;;;;;-3.13;100.00;97947.31;5046029;28;20221;-64
2023/01/29 02:11:09;;;;;;;4.97;4.60;;;;;;;-3.06;100.00;97970.25;5063664;28;20228;-64
2023/01/29 02:13:37;;;;;;;5.10;4.70;;;;;;;-3.14;99.64;97950.81;5056475;28;20222;-65
2023/01/29 02:16:05;;;;;;;5.20;4.80;;;;;;;-3.21;97.63;97971.88;5055046;28;20202;-66
2023/01/29 02:18:36;;;;;;;4.30;4.10;;;;;;;-3.25;97.41;97970.34;5065665;28;20422;-63
2023/01/29 02:21:24;;;;;;;5.50;5.10;;;;;;;-3.23;99.51;97972.88;5066081;28;20226;-64
2023/01/29 02:24:10;;;;;;;4.70;4.37;;;;;;;-3.23;99.04;97976.28;5062960;28;20407;-63
2023/01/29 02:26:51;;;;;;;4.67;4.37;;;;;;;-3.27;98.90;97973.94;5021633;28;20308;-63
2023/01/29 02:29:24;;;;;;;4.93;4.63;;;;;;;-3.36;99.10;97976.09;5065130;28;20243;-63
2023/01/29 02:31:58;;;;;;;5.07;4.77;;;;;;;-3.25;99.56;97965.16;5044581;28;20455;-63
2023/01/29 02:37:18;;;;;;;4.43;4.03;;;;;;;-3.27;99.19;97971.34;5070561;28;20214;-66
2023/01/29 02:39:53;;;;;;;4.73;4.43;;;;;;;-3.23;100.00;97970.28;5017226;28;20230;-63
2023/01/29 02:42:26;;;;;;;4.63;4.20;;;;;;;-3.21;100.00;97976.22;5064480;28;20295;-64
2023/01/29 02:44:58;;;;;;;4.90;4.60;;;;;;;-3.21;100.00;97979.66;5053522;28;20206;-63
2023/01/29 02:47:30;;;;;;;4.50;4.20;;;;;;;-3.22;100.00;97979.72;5062493;28;20495;-62
2023/01/29 02:50:06;;;;;;;5.67;5.27;;;;;;;-3.17;100.00;97969.13;5064773;28;20426;-64
2023/01/29 02:52:38;;;;;;;5.20;4.80;;;;;;;-3.22;100.00;97967.63;5067702;28;20209;-63
2023/01/29 02:55:09;;;;;;;4.73;4.43;;;;;;;-3.21;99.19;97964.09;5069835;28;20240;-63
2023/01/29 02:57:39;;;;;;;5.83;5.43;;;;;;;-3.22;98.07;97965.03;5021936;28;20531;-62
2023/01/29 03:00:12;;;;;;;5.07;4.67;;;;;;;-3.25;98.21;97961.75;5071140;28;20398;-65
2023/01/29 03:02:44;;;;;;;4.80;4.50;;;;;;;-3.25;98.19;97956.56;5042661;28;20217;-62
2023/01/29 03:05:16;;;;;;;4.93;4.63;;;;;;;-3.27;98.91;97961.81;5067547;28;20205;-63
2023/01/29 03:07:50;;;;;;;5.37;5.03;;;;;;;-3.28;97.74;97960.13;5055669;28;20681;-63
2023/01/29 03:10:21;;;;;;;4.70;4.40;;;;;;;-3.22;98.55;97953.81;5067688;28;20278;-65
2023/01/29 03:12:51;;;;;;;5.20;4.90;;;;;;;-3.19;97.72;97953.66;5021944;28;20205;-64
2023/01/29 03:15:25;;;;;;;5.20;4.83;;;;;;;-3.17;98.48;97951.81;5067385;28;20741;-68
2023/01/29 03:17:56;;;;;;;5.37;4.97;;;;;;;-3.19;99.23;97958.84;5049276;28;20229;-66
2023/01/29 03:20:30;;;;;;;5.47;5.03;;;;;;;-3.17;98.45;97957.00;5068517;28;20229;-67
2023/01/29 03:23:01;;;;;;;5.13;4.73;;;;;;;-3.22;98.23;97969.34;5060669;28;20536;-66
2023/01/29 03:33:54;;;;;;;4.57;4.27;;;;;;;-3.15;98.26;97970.72;5066844;28;20233;-67
2023/01/29 03:36:27;;;;;;;5.43;5.03;;;;;;;-3.11;98.29;97966.22;5061374;28;20517;-67
2023/01/29 03:38:54;;;;;;;5.30;4.80;;;;;;;-3.14;98.27;97977.56;5068503;28;20226;-65
2023/01/29 03:41:26;;;;;;;5.40;4.90;;;;;;;-3.18;97.66;97970.88;5058968;28;20501;-66
2023/01/29 03:43:59;;;;;;;5.63;5.13;;;;;;;-3.22;97.14;97977.13;5021605;28;20404;-67
2023/01/29 03:46:31;;;;;;;5.13;4.73;;;;;;;-3.30;96.09;97976.69;5054737;28;20368;-65
2023/01/29 03:49:03;;;;;;;4.77;4.47;;;;;;;-3.22;96.06;97988.34;5046177;28;20408;-65
2023/01/29 03:51:34;;;;;;;4.50;4.20;;;;;;;-3.21;97.95;97986.59;5066007;28;20385;-66
2023/01/29 03:54:08;;;;;;;5.63;5.10;;;;;;;-3.24;97.14;97979.78;5069941;28;20233;-65
2023/01/29 03:56:44;;;;;;;4.20;3.90;;;;;;;-3.23;97.42;97993.59;5070100;28;20217;-65
2023/01/29 03:59:20;;;;;;;4.90;4.50;;;;;;;-3.30;96.28;97982.69;5031171;28;20222;-65
2023/01/29 04:01:53;;;;;;;5.03;4.63;;;;;;;-3.32;95.68;97992.31;5065361;28;20202;-67
2023/01/29 04:04:24;;;;;;;3.90;3.67;;;;;;;-3.35;95.72;97982.09;5040339;28;20295;-64
2023/01/29 04:06:53;;;;;;;4.60;4.30;;;;;;;-3.38;94.57;97980.50;5063871;28;20399;-67
2023/01/29 04:09:23;;;;;;;4.90;4.57;;;;;;;-3.37;94.28;97974.41;5059122;28;20460;-66
2023/01/29 04:11:56;;;;;;;5.27;4.17;;;;;;;-3.40;93.31;97973.72;5067339;28;20613;-66
2023/01/29 04:14:23;;;;;;;4.57;4.27;;;;;;;-3.45;93.08;97970.53;5022476;28;20945;-65
2023/01/29 04:16:56;;;;;;;3.90;3.60;;;;;;;-3.47;93.04;97977.53;5068563;28;20209;-65
2023/01/29 04:19:23;;;;;;;5.07;4.67;;;;;;;-3.50;92.82;97991.47;5040858;28;20493;-65
2023/01/29 04:21:55;;;;;;;5.83;5.33;;;;;;;-3.48;91.89;97981.84;5065123;28;20213;-67
2023/01/29 04:24:23;;;;;;;6.47;4.83;;;;;;;-3.41;92.22;97985.00;5059582;28;20890;-67
2023/01/29 04:26:57;;;;;;;4.70;4.40;;;;;;;-3.46;91.78;97984.38;5068616;28;20249;-66
2023/01/29 04:29:53;;;;;;;3.83;3.63;;;;;;;-3.43;91.58;97979.06;5066423;28;20239;-66
2023/01/29 04:32:26;;;;;;;4.50;4.20;;;;;;;-3.47;91.84;97975.75;5024954;28;20346;-65
2023/01/29 04:35:00;;;;;;;4.60;4.30;;;;;;;-3.44;92.64;97973.03;5045894;28;20214;-64
2023/01/29 04:37:35;;;;;;;6.63;5.73;;;;;;;-3.42;91.77;97984.13;5064153;28;20306;-65
2023/01/29 04:40:12;;;;;;;5.70;5.20;;;;;;;-3.42;91.40;97988.50;5065278;28;20217;-62
2023/01/29 04:42:44;;;;;;;5.67;5.17;;;;;;;-3.38;91.16;97997.78;5063094;28;20287;-64
2023/01/29 04:45:18;;;;;;;5.80;5.30;;;;;;;-3.45;91.43;97992.06;5059764;28;20600;-63
2023/01/29 04:47:50;;;;;;;5.20;4.83;;;;;;;-3.42;91.82;97988.50;5022906;28;20597;-66
2023/01/29 04:50:23;;;;;;;5.37;4.97;;;;;;;-3.50;91.97;97966.41;5042396;28;20385;-66
2023/01/29 04:52:55;;;;;;;4.93;4.53;;;;;;;-3.40;91.73;97978.91;5065216;28;20206;-65
2023/01/29 04:55:29;;;;;;;4.87;4.47;;;;;;;-3.39;92.22;97980.56;5063761;28;20301;-65
2023/01/29 04:58:02;;;;;;;4.43;4.13;;;;;;;-3.47;91.13;97969.75;5068473;28;20206;-63
2023/01/29 05:00:33;;;;;;;4.23;3.93;;;;;;;-3.50;91.73;97974.19;5052975;28;20236;-63
2023/01/29 05:03:03;;;;;;;5.07;4.77;;;;;;;-3.53;91.22;97971.75;4993502;28;20233;-65
2023/01/29 05:05:30;;;;;;;5.07;4.67;;;;;;;-3.61;92.22;97957.47;5044232;28;20214;-62
2023/01/29 05:07:59;;;;;;;4.70;4.40;;;;;;;-3.55;92.71;97968.41;5065195;28;20206;-63
2023/01/29 05:10:27;;;;;;;4.87;4.47;;;;;;;-3.57;93.00;97952.09;5062539;28;20233;-60
2023/01/29 05:12:59;;;;;;;5.20;4.90;;;;;;;-3.70;92.67;97935.47;5058045;28;20751;-62
2023/01/29 05:15:31;;;;;;;4.50;4.20;;;;;;;-3.61;90.90;97960.06;5065238;28;20562;-63
2023/01/29 05:18:01;;;;;;;8.40;4.70;;;;;;;-3.65;91.51;97956.78;5013189;28;20778;-64
2023/01/29 05:20:33;;;;;;;5.80;5.40;;;;;;;-3.77;91.88;97947.91;5050155;28;20223;-65
2023/01/29 05:23:01;;;;;;;5.20;4.80;;;;;;;-3.65;92.41;97968.00;5056891;28;20464;-67
2023/01/29 05:25:31;;;;;;;4.83;4.43;;;;;;;-3.69;92.89;97958.72;5061320;28;20201;-64
2023/01/29 05:28:04;;;;;;;5.60;5.10;;;;;;;-3.68;91.20;97962.97;5066561;28;20280;-65
2023/01/29 05:30:33;;;;;;;5.10;4.70;;;;;;;-3.61;92.13;97949.72;5058633;28;20241;-65
2023/01/29 05:33:01;;;;;;;5.27;4.77;;;;;;;-3.67;91.42;97964.66;5016311;28;20956;-65
2023/01/29 05:35:29;;;;;;;4.70;4.40;;;;;;;-3.65;90.91;97964.56;5063462;28;20225;-64
2023/01/29 05:37:58;;;;;;;5.17;4.77;;;;;;;-3.75;90.90;97961.59;5047365;28;20751;-66
2023/01/29 05:40:25;;;;;;;5.40;5.00;;;;;;;-3.68;90.95;97965.56;5067989;28;20232;-64
2023/01/29 05:42:53;;;;;;;5.40;5.00;;;;;;;-3.67;91.03;97971.56;5060966;28;20502;-66
2023/01/29 05:45:20;;;;;;;5.30;4.90;;;;;;;-3.66;91.01;97973.25;5060382;28;20241;-66
2023/01/29 05:47:48;;;;;;;5.00;4.60;;;;;;;-3.75;90.61;97973.69;5063682;28;20410;-66
2023/01/29 05:50:16;;;;;;;5.00;4.70;;;;;;;-3.72;91.08;97968.38;5018833;28;21145;-67
2023/01/29 05:52:44;;;;;;;5.60;5.20;;;;;;;-3.71;91.59;97959.69;5039940;28;20232;-65
2023/01/29 05:55:13;;;;;;;5.57;5.17;;;;;;;-3.80;91.04;97968.72;5062496;28;20590;-65
2023/01/29 05:57:41;;;;;;;5.07;4.50;;;;;;;-3.81;91.87;97964.47;5063302;28;20202;-64
2023/01/29 06:00:11;;;;;;;5.00;4.50;;;;;;;-3.74;91.95;97963.28;5070233;28;20222;-63
2023/01/29 06:02:39;;;;;;;4.80;4.50;;;;;;;-3.83;91.94;97964.56;5044169;28;20214;-63
2023/01/29 06:05:08;;;;;;;5.97;5.47;;;;;;;-3.79;91.43;97947.94;5021342;28;20245;-66
2023/01/29 06:07:36;;;;;;;4.63;4.33;;;;;;;-3.71;91.60;97942.41;5049767;28;20210;-63
2023/01/29 06:10:04;;;;;;;4.87;4.57;;;;;;;-3.70;91.42;97932.88;5065450;28;20468;-64
2023/01/29 06:12:32;;;;;;;5.13;4.73;;;;;;;-3.70;91.95;97919.91;5068024;28;20519;-64
2023/01/29 06:15:00;;;;;;;5.37;4.97;;;;;;;-3.80;91.29;97930.75;5068211;28;20494;-66
2023/01/29 06:17:28;;;;;;;4.70;4.30;;;;;;;-3.78;91.32;97935.84;5069299;28;20205;-64
2023/01/29 06:19:55;;;;;;;4.97;4.57;;;;;;;-3.88;91.14;97932.03;5070735;28;20206;-67
2023/01/29 06:22:23;;;;;;;5.00;4.60;;;;;;;-3.98;91.02;97916.94;5028599;28;20728;-66
2023/01/29 06:24:50;;;;;;;4.80;4.43;;;;;;;-4.00;90.54;97915.31;5050714;28;20991;-67
2023/01/29 06:27:18;;;;;;;4.47;4.17;;;;;;;-4.02;91.08;97924.91;5069266;28;20208;-62
2023/01/29 06:29:47;;;;;;;4.63;4.33;;;;;;;-4.03;90.35;97915.47;5069204;28;20226;-67
2023/01/29 06:32:14;;;;;;;4.60;4.23;;;;;;;-4.03;90.71;97921.50;5063912;28;20209;-65
2023/01/29 06:34:42;;;;;;;7.30;5.27;;;;;;;-4.00;91.04;97933.44;5064795;28;20203;-65
2023/01/29 06:37:09;;;;;;;4.60;4.33;;;;;;;-3.99;90.77;97925.63;5027171;28;20254;-67
2023/01/29 06:39:37;;;;;;;4.70;4.40;;;;;;;-4.00;90.81;97928.28;5046501;28;20222;-64
2023/01/29 06:42:04;;;;;;;5.40;5.00;;;;;;;-3.95;91.46;97940.09;5061427;28;20206;-66
2023/01/29 06:44:32;;;;;;;4.43;4.13;;;;;;;-3.99;90.00;97943.75;5065764;28;20590;-65
2023/01/29 06:47:01;;;;;;;4.47;4.17;;;;;;;-3.99;91.21;97945.47;5041234;28;20202;-64
2023/01/29 06:49:29;;;;;;;4.90;4.50;;;;;;;-3.97;91.12;97944.50;5064785;28;20946;-64
2023/01/29 06:51:57;;;;;;;5.13;4.63;;;;;;;-4.07;91.13;97935.50;5041927;28;20208;-64
2023/01/29 06:54:25;;;;;;;4.80;4.50;;;;;;;-3.97;91.43;97941.09;5033270;28;20210;-67
2023/01/29 06:56:53;;;;;;;4.77;4.40;;;;;;;-3.91;91.53;97951.16;5070461;28;20645;-65
2023/01/29 06:59:20;;;;;;;4.60;4.30;;;;;;;-3.93;91.67;97958.16;5071385;28;20210;-67
2023/01/29 07:01:48;;;;;;;5.27;4.87;;;;;;;-3.97;91.37;97961.81;5062880;28;20261;-67
2023/01/29 07:04:17;;;;;;;5.20;4.90;;;;;;;-3.87;91.93;97962.19;5058809;28;20207;-67
2023/01/29 07:06:44;;;;;;;5.07;4.77;;;;;;;-3.95;91.51;97970.34;5049205;28;20210;-68
2023/01/29 07:09:13;;;;;;;6.07;5.20;;;;;;;-4.03;90.64;97975.88;5012288;28;20228;-66
2023/01/29 07:11:40;;;;;;;5.23;4.93;;;;;;;-4.04;91.41;97973.34;5073777;28;21191;-68
2023/01/29 07:14:08;;;;;;;4.90;4.60;;;;;;;-4.04;90.91;97973.34;5063496;28;20206;-66
2023/01/29 07:16:35;;;;;;;5.43;5.03;;;;;;;-4.05;91.45;97974.25;5038619;28;20234;-64
2023/01/29 07:19:03;;;;;;;5.67;4.53;;;;;;;-4.01;91.91;97974.03;5066043;28;20280;-64
2023/01/29 07:21:32;;;;;;;4.97;4.60;;;;;;;-3.98;92.21;97968.72;5051016;28;20457;-64
2023/01/29 07:24:00;;;;;;;5.50;5.10;;;;;;;-3.99;91.89;97968.78;5024255;28;20211;-66
2023/01/29 07:26:28;;;;;;;4.97;4.67;;;;;;;-4.03;90.90;97965.53;5039476;28;20674;-64
2023/01/29 07:28:55;;;;;;;5.37;4.97;;;;;;;-3.93;90.88;97968.50;5058232;28;20224;-66
2023/01/29 07:31:23;;;;;;;6.03;5.53;;;;;;;-3.88;90.19;97970.88;5061609;28;20214;-66
2023/01/29 07:33:50;;;;;;;5.77;5.37;;;;;;;-3.84;91.29;97986.19;5060938;28;21066;-67
2023/01/29 07:36:18;;;;;;;5.43;5.03;;;;;;;-3.93;89.91;97979.69;5063877;28;20218;-66
2023/01/29 07:38:50;;;;;;;5.57;5.17;;;;;;;-3.83;90.45;97984.41;5008651;28;20848;-66
2023/01/29 07:41:18;;;;;;;6.00;5.60;;;;;;;-3.85;89.91;97978.47;5044984;28;21009;-64
2023/01/29 07:43:45;;;;;;;6.47;5.90;;;;;;;-3.89;90.50;97974.38;5055647;28;20202;-64
2023/01/29 07:46:13;;;;;;;6.10;5.60;;;;;;;-3.89;90.70;97995.94;5058501;28;20194;-65
2023/01/29 07:48:40;;;;;;;7.23;6.63;;;;;;;-3.93;89.69;97986.63;5039155;28;20200;-66
2023/01/29 07:51:08;;;;;;;6.93;6.30;;;;;;;-4.00;89.76;97985.22;5056383;28;20562;-63
2023/01/29 07:53:35;;;;;;;7.10;6.53;;;;;;;-3.89;90.51;97989.91;5015677;28;21358;-64
2023/01/29 07:56:06;;;;;;;6.77;6.20;;;;;;;-3.88;90.35;97999.34;5040593;28;20671;-64
2023/01/29 07:58:33;;;;;;;7.07;6.50;;;;;;;-3.84;90.81;97993.97;5051951;28;20229;-64
2023/01/29 08:01:05;;;;;;;7.13;6.53;;;;;;;-3.95;89.45;97997.06;5041330;28;20688;-63
2023/01/29 08:03:33;;;;;;;8.57;7.80;;;;;;;-3.86;90.27;98008.72;5040853;28;21078;-66
2023/01/29 08:06:01;;;;;;;7.60;7.00;;;;;;;-3.90;89.74;98019.28;5066149;28;20194;-63
2023/01/29 08:08:28;;;;;;;7.97;7.33;;;;;;;-4.14;89.81;98022.97;5043824;28;20446;-65
2023/01/29 08:10:56;;;;;;;7.63;7.03;;;;;;;-4.09;89.68;98020.16;5016269;28;20746;-63
2023/01/29 08:13:25;;;;;;;7.60;7.00;;;;;;;-4.05;90.14;98026.88;5047944;28;20690;-64
2023/01/29 08:15:52;;;;;;;7.63;6.93;;;;;;;-4.13;89.55;98029.00;5065374;28;20205;-66
2023/01/29 08:18:20;;;;;;;7.07;6.50;;;;;;;-4.04;89.46;98023.38;5040518;28;20424;-64
2023/01/29 08:20:47;;;;;;;7.50;6.90;;;;;;;-3.84;90.05;98027.63;5066358;28;20220;-63
2023/01/29 08:23:16;;;;;;;8.87;8.17;;;;;;;-3.89;89.91;98024.41;5057192;28;20214;-63
2023/01/29 08:25:44;;;;;;;7.72;7.13;;;;;;;-3.86;88.72;98023.41;5014324;28;20452;-63
2023/01/29 08:28:11;;;;;;;8.30;7.53;;;;;;;-3.78;88.54;98032.50;5033416;28;20614;-62
2023/01/29 08:30:40;;;;;;;7.70;7.00;;;;;;;-3.99;87.94;98028.31;5067568;28;20610;-65
2023/01/29 08:33:08;;;;;;;7.63;6.90;;;;;;;-3.81;88.33;98024.88;5049768;28;20197;-62
2023/01/29 08:35:36;;;;;;;8.07;7.37;;;;;;;-3.81;88.20;98030.06;5066779;28;20233;-64
2023/01/29 08:38:04;;;;;;;8.13;7.43;;;;;;;-3.62;87.74;98031.75;5075984;28;20230;-63
2023/01/29 08:40:33;;;;;;;7.87;7.17;;;;;;;-3.68;87.01;98037.25;5021137;28;20927;-63
2023/01/29 08:43:01;;;;;;;8.33;7.73;;;;;;;-3.63;87.27;98051.66;5067560;28;20202;-62
2023/01/29 08:45:30;;;;;;;9.07;8.30;;;;;;;-3.47;87.88;98047.50;5045429;28;20298;-64
2023/01/29 08:47:59;;;;;;;7.50;6.90;;;;;;;-3.69;87.56;98048.50;5045395;28;20206;-63
2023/01/29 08:50:29;;;;;;;7.70;7.07;;;;;;;-3.81;87.36;98053.38;5063435;28;20218;-65
2023/01/29 08:52:57;;;;;;;7.77;7.17;;;;;;;-3.69;87.11;98064.06;5059275;28;20227;-65
2023/01/29 08:55:25;;;;;;;7.70;7.10;;;;;;;-3.69;87.03;98064.91;5016337;28;20547;-64
2023/01/29 08:57:53;;;;;;;8.60;7.90;;;;;;;-3.85;86.70;98063.94;5064400;28;20480;-64
2023/01/29 09:00:21;;;;;;;9.40;8.60;;;;;;;-3.85;87.91;98064.78;5045773;28;20476;-64
2023/01/29 09:02:49;;;;;;;9.83;9.03;;;;;;;-3.74;88.16;98060.84;5069110;28;20194;-64
2023/01/29 09:05:18;;;;;;;9.73;8.93;;;;;;;-3.71;87.11;98069.31;5046976;28;20209;-63
2023/01/29 09:07:46;;;;;;;9.90;9.00;;;;;;;-3.76;86.74;98068.72;5065194;28;20448;-64
2023/01/29 09:10:16;;;;;;;9.67;8.87;;;;;;;-3.84;86.85;98050.94;5020074;28;20472;-62
2023/01/29 09:12:44;;;;;;;9.80;9.00;;;;;;;-3.71;87.55;98064.16;5069495;28;20812;-66
2023/01/29 09:15:12;;;;;;;9.80;8.87;;;;;;;-3.58;86.81;98058.38;5059806;28;20686;-63
2023/01/29 09:17:40;;;;;;;11.98;10.88;;;;;;;-3.46;87.00;98050.00;5046643;28;20460;-66
2023/01/29 09:20:08;;;;;;;9.73;8.87;;;;;;;-3.29;85.98;98056.13;5046714;28;20218;-63
2023/01/29 09:22:37;;;;;;;9.03;8.33;;;;;;;-3.26;85.78;98043.00;5062198;28;20945;-65
2023/01/29 09:25:16;;;;;;;9.83;9.00;;;;;;;-3.37;85.24;98046.13;5040533;28;20704;-65
2023/01/29 09:27:44;;;;;;;11.77;10.73;;;;;;;-3.51;85.83;98037.28;5070783;28;20210;-65
2023/01/29 09:30:12;;;;;;;11.13;10.13;;;;;;;-3.42;85.47;98045.50;5061009;28;21119;-64
2023/01/29 09:32:40;;;;;;;9.60;8.80;;;;;;;-3.46;84.38;98044.81;5049363;28;20190;-65
2023/01/29 09:35:21;;;;;;;10.43;9.53;;;;;;;-3.35;84.90;98050.31;5039814;28;20460;-65
2023/01/29 09:37:50;;;;;;;10.00;9.10;;;;;;;-3.36;83.77;98040.03;5040935;28;20229;-66
2023/01/29 09:40:24;;;;;;;9.10;8.30;;;;;;;-3.24;84.07;98036.00;5064175;28;20414;-64
2023/01/29 09:42:55;;;;;;;8.30;7.70;;;;;;;-2.99;82.94;98027.00;5024177;28;20423;-65
2023/01/29 09:45:25;;;;;;;9.30;8.60;;;;;;;-2.45;83.08;98010.38;5067409;28;20198;-63
2023/01/29 09:47:53;;;;;;;9.93;9.13;;;;;;;-2.23;81.08;98013.50;5048572;28;20485;-66
2023/01/29 09:50:23;;;;;;;9.33;8.50;;;;;;;-2.39;80.58;98015.25;5047747;28;20313;-65
2023/01/29 09:52:56;;;;;;;9.33;8.63;;;;;;;-2.40;80.88;98013.56;5063963;28;20429;-66
2023/01/29 09:55:26;;;;;;;9.97;8.97;;;;;;;-2.26;80.77;98020.63;5054218;28;20217;-65
2023/01/29 09:57:56;;;;;;;10.40;9.43;;;;;;;-2.33;79.89;98004.53;5035407;28;20222;-67
2023/01/29 10:00:25;;;;;;;10.03;9.23;;;;;;;-2.14;80.07;98019.13;5059125;28;20311;-65
2023/01/29 10:03:06;;;;;;;7.97;7.37;;;;;;;-2.36;80.39;98022.84;5063780;28;20190;-67
2023/01/29 10:05:50;;;;;;;7.60;7.00;;;;;;;-2.53;80.10;98011.63;5026970;28;20210;-65
2023/01/29 10:08:41;;;;;;;8.17;7.47;;;;;;;-2.48;79.65;98008.78;5065880;28;20281;-67
2023/01/29 10:11:16;;;;;;;8.20;7.60;;;;;;;-2.22;80.20;98012.59;5068263;28;20198;-66
2023/01/29 10:13:48;;;;;;;10.33;9.43;;;;;;;-2.36;79.77;98013.31;5037095;28;20206;-66
2023/01/29 10:16:30;;;;;;;7.63;7.07;;;;;;;-2.32;79.60;98006.19;5051874;28;20828;-66
2023/01/29 10:19:11;;;;;;;13.93;12.43;;;;;;;-2.28;80.57;98007.69;5051550;28;20218;-66
2023/01/29 10:21:51;;;;;;;10.00;9.17;;;;;;;-2.47;80.83;98000.06;5067023;28;20202;-64
2023/01/29 10:24:26;;;;;;;8.97;8.27;;;;;;;-2.60;79.76;98019.81;5065492;28;20200;-61
2023/01/29 10:26:54;;;;;;;7.60;7.07;;;;;;;-2.53;80.42;98015.97;5067986;28;20705;-66
2023/01/29 10:29:22;;;;;;;9.27;8.47;;;;;;;-2.50;80.97;98003.69;5014357;28;20644;-63
2023/01/29 10:31:52;;;;;;;8.00;7.40;;;;;;;-2.54;80.86;97996.13;5046401;28;20206;-65
2023/01/29 10:34:24;;;;;;;8.50;7.70;;;;;;;-2.45;80.35;97995.66;5030870;28;20223;-64
2023/01/29 10:36:54;;;;;;;8.47;7.77;;;;;;;-2.19;80.86;97989.06;5072482;28;20194;-67
2023/01/29 10:39:24;;;;;;;7.60;7.00;;;;;;;-2.31;79.58;97981.91;5047304;28;20226;-65
2023/01/29 10:42:05;;;;;;;7.70;7.20;;;;;;;-2.33;80.91;97978.56;5071144;28;20201;-67
2023/01/29 10:44:46;;;;;;;8.17;7.53;;;;;;;-2.31;79.92;97981.09;5039163;28;20217;-64
2023/01/29 10:47:27;;;;;;;8.20;7.50;;;;;;;-2.17;79.92;97978.56;5035904;28;20199;-64
2023/01/29 10:50:11;;;;;;;7.63;6.97;;;;;;;-1.72;79.05;97978.69;5068596;28;20221;-64
2023/01/29 10:52:50;;;;;;;7.93;7.23;;;;;;;-1.39;78.68;97966.44;5037242;28;20219;-65
2023/01/29 10:55:28;;;;;;;9.17;8.37;;;;;;;-1.11;78.39;97951.81;5049217;28;20206;-64
2023/01/29 10:58:06;;;;;;;8.67;7.97;;;;;;;-1.31;77.20;97946.88;5049058;28;20218;-66
2023/01/29 11:00:36;;;;;;;9.60;8.80;;;;;;;-1.51;76.77;97950.63;5038741;28;20233;-66
2023/01/29 11:03:15;;;;;;;7.73;7.03;;;;;;;-1.68;77.78;97943.00;5054927;28;20198;-66
2023/01/29 11:05:58;;;;;;;7.60;7.00;;;;;;;-1.85;78.00;97964.72;5048812;28;20199;-66
2023/01/29 11:08:29;;;;;;;7.50;6.97;;;;;;;-1.51;78.35;97961.03;5028608;28;20207;-65
2023/01/29 11:11:04;;;;;;;8.47;7.87;;;;;;;-1.61;77.70;97954.69;5078155;28;20218;-66
2023/01/29 11:13:35;;;;;;;7.70;7.20;;;;;;;-1.71;78.20;97958.72;5081095;28;20906;-62
2023/01/29 11:16:05;;;;;;;8.03;7.23;;;;;;;-1.54;77.28;97957.75;5040672;28;20577;-65
2023/01/29 11:18:51;;;;;;;8.43;7.63;;;;;;;-1.55;77.52;97962.13;5052480;28;20276;-65
2023/01/29 11:21:19;;;;;;;8.43;7.63;;;;;;;-2.14;78.01;97962.00;5046986;28;20209;-63
2023/01/29 11:23:46;;;;;;;8.70;7.90;;;;;;;-1.85;79.34;97968.16;5062549;28;20198;-65
2023/01/29 11:26:19;;;;;;;8.20;7.50;;;;;;;-1.88;78.13;97959.72;5048805;28;20209;-64
2023/01/29 11:28:48;;;;;;;8.13;7.53;;;;;;;-1.84;77.93;97933.44;5051243;28;20202;-65
2023/01/29 11:31:19;;;;;;;8.00;7.20;;;;;;;-1.69;77.44;97930.91;5021804;28;20210;-64
2023/01/29 11:33:47;;;;;;;7.97;7.17;;;;;;;-1.55;77.81;97917.94;5050093;28;20205;-65
2023/01/29 11:36:32;;;;;;;8.23;7.63;;;;;;;-1.53;78.28;97916.09;5037189;28;20612;-64
2023/01/29 11:39:13;;;;;;;9.77;8.80;;;;;;;-1.64;77.61;97911.50;5069007;28;21096;-64
2023/01/29 11:41:49;;;;;;;8.40;7.77;;;;;;;-2.02;77.98;97909.34;5067604;28;20634;-63
2023/01/29 11:44:21;;;;;;;7.67;7.07;;;;;;;-1.93;78.26;97895.84;5067060;28;20202;-63
2023/01/29 11:46:50;;;;;;;8.07;7.30;;;;;;;-1.80;77.89;97885.59;5047766;28;20198;-64
2023/01/29 11:49:32;;;;;;;7.83;7.23;;;;;;;-1.90;78.43;97892.25;5047696;28;20226;-65
2023/01/29 11:52:03;;;;;;;11.77;10.67;;;;;;;-1.55;77.88;97875.50;5046004;28;20214;-66
2023/01/29 11:54:34;;;;;;;11.00;9.93;;;;;;;-1.57;78.01;97870.41;5045365;28;20551;-64
2023/01/29 11:57:03;;;;;;;7.60;6.97;;;;;;;-1.41;78.96;97869.50;5061751;28;20267;-66
2023/01/29 11:59:41;;;;;;;7.80;7.20;;;;;;;-1.34;78.37;97868.19;5067154;28;20241;-63
2023/01/29 12:02:23;;;;;;;8.23;7.63;;;;;;;-1.19;76.82;97866.44;5049752;28;20240;-65
2023/01/29 12:04:54;;;;;;;8.63;7.93;;;;;;;-1.04;76.69;97862.06;5046994;28;20474;-66
2023/01/29 12:07:22;;;;;;;7.73;7.13;;;;;;;-1.18;77.26;97853.34;5063196;28;20693;-63
2023/01/29 12:09:54;;;;;;;8.10;7.47;;;;;;;-0.97;76.19;97850.34;5061094;28;20271;-65
2023/01/29 12:12:39;;;;;;;8.27;7.55;;;;;;;-1.03;76.27;97848.13;5068239;28;20449;-62
2023/01/29 12:15:19;;;;;;;7.33;6.73;;;;;;;-1.10;76.83;97850.28;5035314;28;20425;-64
2023/01/29 12:17:57;;;;;;;7.93;7.33;;;;;;;-1.11;76.25;97852.97;5040252;28;20202;-63
2023/01/29 12:20:30;;;;;;;8.17;7.47;;;;;;;-0.86;76.32;97847.09;5049083;28;20628;-65